sensor_id;sensor_type;location;lat;lon;timestamp;pressure;altitude;pressure_sealevel;temperature;humidity
72558;BME280;60583;50.094;8.748;2023-08-31T00:00:41;99724.66;;;14.23;100.00
72558;BME280;60583;50.094;8.748;2023-08-31T00:03:07;99736.69;;;14.32;100.00
72558;BME280;60583;50.094;8.748;2023-08-31T00:05:37;99717.56;;;14.17;100.00
72558;BME280;60583;50.094;8.748;2023-08-31T00:08:02;99726.75;;;14.21;100.00
72558;BME280;60583;50.094;8.748;2023-08-31T00:10:28;99727.44;;;14.28;100.00
72558;BME280;60583;50.094;8.748;2023-08-31T00:12:55;99723.84;;;14.34;100.00
72558;BME280;60583;50.094;8.748;2023-08-31T00:15:20;99739.47;;;14.37;100.00
72558;BME280;60583;50.094;8.748;2023-08-31T00:17:45;99722.78;;;14.35;100.00
72558;BME280;60583;50.094;8.748;2023-08-31T00:20:11;99699.00;;;14.27;100.00
72558;BME280;60583;50.094;8.748;2023-08-31T00:22:39;99749.22;;;14.43;100.00
72558;BME280;60583;50.094;8.748;2023-08-31T00:25:05;99739.03;;;14.56;100.00
72558;BME280;60583;50.094;8.748;2023-08-31T00:27:34;99719.66;;;14.54;100.00
72558;BME280;60583;50.094;8.748;2023-08-31T00:30:06;99710.53;;;14.39;100.00
72558;BME280;60583;50.094;8.748;2023-08-31T00:32:33;99734.00;;;14.60;100.00
72558;BME280;60583;50.094;8.748;2023-08-31T00:34:59;99725.50;;;14.51;100.00
72558;BME280;60583;50.094;8.748;2023-08-31T00:37:25;99731.22;;;14.55;100.00
72558;BME280;60583;50.094;8.748;2023-08-31T00:39:50;99736.44;;;14.61;100.00
72558;BME280;60583;50.094;8.748;2023-08-31T00:42:18;99745.63;;;14.65;100.00
72558;BME280;60583;50.094;8.748;2023-08-31T00:44:43;99728.94;;;14.63;100.00
72558;BME280;60583;50.094;8.748;2023-08-31T00:47:12;99742.72;;;14.67;100.00
72558;BME280;60583;50.094;8.748;2023-08-31T00:49:38;99757.19;;;14.66;100.00
72558;BME280;60583;50.094;8.748;2023-08-31T00:52:04;99753.56;;;14.60;100.00
72558;BME280;60583;50.094;8.748;2023-08-31T00:54:30;99756.59;;;14.64;100.00
72558;BME280;60583;50.094;8.748;2023-08-31T00:56:56;99748.19;;;14.44;100.00
72558;BME280;60583;50.094;8.748;2023-08-31T00:59:22;99745.59;;;14.49;100.00
72558;BME280;60583;50.094;8.748;2023-08-31T01:12:24;99740.53;;;14.24;100.00
72558;BME280;60583;50.094;8.748;2023-08-31T01:15:02;99768.25;;;14.30;100.00
72558;BME280;60583;50.094;8.748;2023-08-31T01:17:39;99771.31;;;14.22;100.00
72558;BME280;60583;50.094;8.748;2023-08-31T01:20:08;99746.34;;;14.21;100.00
72558;BME280;60583;50.094;8.748;2023-08-31T01:22:40;99764.97;;;14.28;100.00
72558;BME280;60583;50.094;8.748;2023-08-31T01:25:08;99744.38;;;14.17;100.00
72558;BME280;60583;50.094;8.748;2023-08-31T01:27:35;99759.09;;;14.02;100.00
72558;BME280;60583;50.094;8.748;2023-08-31T01:30:03;99765.63;;;14.06;100.00
72558;BME280;60583;50.094;8.748;2023-08-31T01:32:29;99756.19;;;14.04;100.00
72558;BME280;60583;50.094;8.748;2023-08-31T01:34:54;99763.78;;;13.95;100.00
72558;BME280;60583;50.094;8.748;2023-08-31T01:37:34;99753.53;;;13.92;100.00
72558;BME280;60583;50.094;8.748;2023-08-31T01:43:04;99769.13;;;13.95;100.00
72558;BME280;60583;50.094;8.748;2023-08-31T01:45:32;99776.81;;;14.03;100.00
72558;BME280;60583;50.094;8.748;2023-08-31T01:48:01;99779.41;;;13.98;100.00
72558;BME280;60583;50.094;8.748;2023-08-31T01:50:26;99779.41;;;13.98;100.00
72558;BME280;60583;50.094;8.748;2023-08-31T01:52:52;99783.59;;;13.94;100.00
72558;BME280;60583;50.094;8.748;2023-08-31T01:55:21;99775.22;;;13.91;100.00
72558;BME280;60583;50.094;8.748;2023-08-31T01:57:47;99791.25;;;14.02;100.00
72558;BME280;60583;50.094;8.748;2023-08-31T02:00:14;99777.06;;;14.02;100.00
72558;BME280;60583;50.094;8.748;2023-08-31T02:02:41;99782.31;;;13.97;100.00
72558;BME280;60583;50.094;8.748;2023-08-31T02:05:07;99783.25;;;13.91;100.00
72558;BME280;60583;50.094;8.748;2023-08-31T02:07:33;99779.06;;;13.83;100.00
72558;BME280;60583;50.094;8.748;2023-08-31T02:09:58;99795.72;;;13.85;100.00
72558;BME280;60583;50.094;8.748;2023-08-31T02:12:24;99793.16;;;13.90;100.00
72558;BME280;60583;50.094;8.748;2023-08-31T02:14:50;99772.66;;;13.73;100.00
72558;BME280;60583;50.094;8.748;2023-08-31T02:17:15;99788.03;;;13.77;100.00
72558;BME280;60583;50.094;8.748;2023-08-31T02:19:40;99789.31;;;13.86;100.00
72558;BME280;60583;50.094;8.748;2023-08-31T02:22:06;99767.78;;;13.58;100.00
72558;BME280;60583;50.094;8.748;2023-08-31T02:24:31;99774.53;;;13.49;100.00
72558;BME280;60583;50.094;8.748;2023-08-31T02:26:56;99781.53;;;13.62;100.00
72558;BME280;60583;50.094;8.748;2023-08-31T02:29:22;99792.00;;;13.63;100.00
72558;BME280;60583;50.094;8.748;2023-08-31T02:31:48;99793.97;;;13.68;100.00
72558;BME280;60583;50.094;8.748;2023-08-31T02:34:13;99787.22;;;13.65;100.00
72558;BME280;60583;50.094;8.748;2023-08-31T02:36:38;99762.53;;;13.52;100.00
72558;BME280;60583;50.094;8.748;2023-08-31T02:39:04;99797.59;;;13.73;100.00
72558;BME280;60583;50.094;8.748;2023-08-31T02:41:29;99793.16;;;13.79;100.00
72558;BME280;60583;50.094;8.748;2023-08-31T02:43:55;99788.03;;;13.77;100.00
72558;BME280;60583;50.094;8.748;2023-08-31T02:46:20;99787.09;;;13.60;100.00
72558;BME280;60583;50.094;8.748;2023-08-31T02:48:46;99779.75;;;13.67;100.00
72558;BME280;60583;50.094;8.748;2023-08-31T02:51:11;99783.25;;;13.68;100.00
72558;BME280;60583;50.094;8.748;2023-08-31T02:53:37;99784.66;;;13.70;100.00
72558;BME280;60583;50.094;8.748;2023-08-31T02:56:02;99789.44;;;13.68;100.00
72558;BME280;60583;50.094;8.748;2023-08-31T02:58:28;99798.28;;;13.80;100.00
72558;BME280;60583;50.094;8.748;2023-08-31T03:00:54;99804.94;;;13.89;100.00
72558;BME280;60583;50.094;8.748;2023-08-31T03:03:21;99799.47;;;13.84;100.00
72558;BME280;60583;50.094;8.748;2023-08-31T03:05:46;99810.66;;;13.81;100.00
72558;BME280;60583;50.094;8.748;2023-08-31T03:08:12;99803.06;;;13.78;100.00
72558;BME280;60583;50.094;8.748;2023-08-31T03:10:38;99790.59;;;13.72;100.00
72558;BME280;60583;50.094;8.748;2023-08-31T03:13:04;99810.66;;;13.81;100.00
72558;BME280;60583;50.094;8.748;2023-08-31T03:15:32;99818.22;;;13.84;100.00
72558;BME280;60583;50.094;8.748;2023-08-31T03:17:58;99797.94;;;13.77;100.00
72558;BME280;60583;50.094;8.748;2023-08-31T03:20:23;99800.84;;;13.75;100.00
72558;BME280;60583;50.094;8.748;2023-08-31T03:22:49;99813.66;;;13.73;100.00
72558;BME280;60583;50.094;8.748;2023-08-31T03:25:15;99803.53;;;13.64;100.00
72558;BME280;60583;50.094;8.748;2023-08-31T03:27:40;99797.50;;;13.57;100.00
72558;BME280;60583;50.094;8.748;2023-08-31T03:30:06;99811.09;;;13.55;100.00
72558;BME280;60583;50.094;8.748;2023-08-31T03:32:31;99805.03;;;13.48;100.00
72558;BME280;60583;50.094;8.748;2023-08-31T03:34:57;99817.84;;;13.46;100.00
72558;BME280;60583;50.094;8.748;2023-08-31T03:37:22;99798.63;;;13.37;100.00
72558;BME280;60583;50.094;8.748;2023-08-31T03:39:48;99809.69;;;13.41;100.00
72558;BME280;60583;50.094;8.748;2023-08-31T03:42:13;99806.88;;;13.36;100.00
72558;BME280;60583;50.094;8.748;2023-08-31T03:44:39;99821.78;;;13.32;100.00
72558;BME280;60583;50.094;8.748;2023-08-31T03:47:04;99824.69;;;13.30;100.00
72558;BME280;60583;50.094;8.748;2023-08-31T03:49:29;99812.00;;;13.26;100.00
72558;BME280;60583;50.094;8.748;2023-08-31T03:51:57;99805.94;;;13.30;100.00
72558;BME280;60583;50.094;8.748;2023-08-31T03:54:22;99822.50;;;13.39;100.00
72558;BME280;60583;50.094;8.748;2023-08-31T03:56:48;99823.41;;;13.33;100.00
72558;BME280;60583;50.094;8.748;2023-08-31T03:59:13;99837.16;;;13.36;100.00
72558;BME280;60583;50.094;8.748;2023-08-31T04:01:38;99836.81;;;13.33;100.00
72558;BME280;60583;50.094;8.748;2023-08-31T04:04:04;99838.09;;;13.42;100.00
72558;BME280;60583;50.094;8.748;2023-08-31T04:06:30;99835.50;;;13.24;100.00
72558;BME280;60583;50.094;8.748;2023-08-31T04:08:55;99850.44;;;13.31;100.00
72558;BME280;60583;50.094;8.748;2023-08-31T04:11:21;99831.44;;;13.21;100.00
72558;BME280;60583;50.094;8.748;2023-08-31T04:13:47;99845.28;;;13.18;100.00
72558;BME280;60583;50.094;8.748;2023-08-31T04:16:12;99840.94;;;13.17;100.00
72558;BME280;60583;50.094;8.748;2023-08-31T04:18:38;99861.34;;;13.30;100.00
72558;BME280;60583;50.094;8.748;2023-08-31T04:21:03;99851.59;;;13.24;100.00
72558;BME280;60583;50.094;8.748;2023-08-31T04:23:29;99829.78;;;13.20;100.00
72558;BME280;60583;50.094;8.748;2023-08-31T04:25:54;99849.47;;;13.26;100.00
72558;BME280;60583;50.094;8.748;2023-08-31T04:28:20;99860.28;;;13.19;100.00
72558;BME280;60583;50.094;8.748;2023-08-31T04:30:45;99865.88;;;13.18;100.00
72558;BME280;60583;50.094;8.748;2023-08-31T04:33:11;99858.28;;;13.15;100.00
72558;BME280;60583;50.094;8.748;2023-08-31T04:35:36;99864.72;;;13.25;100.00
72558;BME280;60583;50.094;8.748;2023-08-31T04:38:02;99851.34;;;13.25;100.00
72558;BME280;60583;50.094;8.748;2023-08-31T04:40:28;99876.88;;;13.39;100.00
72558;BME280;60583;50.094;8.748;2023-08-31T04:42:54;99858.91;;;13.28;100.00
72558;BME280;60583;50.094;8.748;2023-08-31T04:45:20;99859.75;;;13.29;100.00
72558;BME280;60583;50.094;8.748;2023-08-31T04:47:45;99877.34;;;13.36;100.00
72558;BME280;60583;50.094;8.748;2023-08-31T04:50:11;99868.22;;;13.26;100.00
72558;BME280;60583;50.094;8.748;2023-08-31T04:52:36;99872.00;;;13.36;100.00
72558;BME280;60583;50.094;8.748;2023-08-31T04:55:02;99878.38;;;13.35;100.00
72558;BME280;60583;50.094;8.748;2023-08-31T04:57:29;99880.34;;;13.28;100.00
72558;BME280;60583;50.094;8.748;2023-08-31T04:59:54;99876.44;;;13.13;100.00
72558;BME280;60583;50.094;8.748;2023-08-31T05:02:20;99889.84;;;13.24;100.00
72558;BME280;60583;50.094;8.748;2023-08-31T05:04:45;99872.88;;;13.01;100.00
72558;BME280;60583;50.094;8.748;2023-08-31T05:07:10;99899.94;;;13.11;100.00
72558;BME280;60583;50.094;8.748;2023-08-31T05:09:36;99898.69;;;13.13;100.00
72558;BME280;60583;50.094;8.748;2023-08-31T05:12:02;99898.75;;;13.07;100.00
72558;BME280;60583;50.094;8.748;2023-08-31T05:14:28;99880.31;;;12.99;100.00
72558;BME280;60583;50.094;8.748;2023-08-31T05:16:54;99906.16;;;13.05;100.00
72558;BME280;60583;50.094;8.748;2023-08-31T05:19:20;99904.09;;;13.07;100.00
72558;BME280;60583;50.094;8.748;2023-08-31T05:21:45;99902.09;;;13.02;100.00
72558;BME280;60583;50.094;8.748;2023-08-31T05:24:11;99897.56;;;13.03;100.00
72558;BME280;60583;50.094;8.748;2023-08-31T05:26:36;99899.66;;;13.01;100.00
72558;BME280;60583;50.094;8.748;2023-08-31T05:29:02;99903.66;;;13.10;100.00
72558;BME280;60583;50.094;8.748;2023-08-31T05:31:29;99914.31;;;13.16;100.00
72558;BME280;60583;50.094;8.748;2023-08-31T05:33:55;99931.53;;;13.20;100.00
72558;BME280;60583;50.094;8.748;2023-08-31T05:36:20;99934.72;;;13.29;100.00
72558;BME280;60583;50.094;8.748;2023-08-31T05:38:46;99932.63;;;13.31;100.00
72558;BME280;60583;50.094;8.748;2023-08-31T05:41:11;99935.44;;;13.36;100.00
72558;BME280;60583;50.094;8.748;2023-08-31T05:43:37;99928.16;;;13.25;100.00
72558;BME280;60583;50.094;8.748;2023-08-31T05:46:06;99945.09;;;13.37;100.00
72558;BME280;60583;50.094;8.748;2023-08-31T05:48:31;99934.72;;;13.29;100.00
72558;BME280;60583;50.094;8.748;2023-08-31T05:50:57;99947.06;;;13.30;100.00
72558;BME280;60583;50.094;8.748;2023-08-31T05:53:22;99938.44;;;13.28;100.00
72558;BME280;60583;50.094;8.748;2023-08-31T05:55:48;99928.31;;;13.30;100.00
72558;BME280;60583;50.094;8.748;2023-08-31T05:58:13;99944.88;;;13.38;100.00
72558;BME280;60583;50.094;8.748;2023-08-31T06:00:39;99953.25;;;13.42;100.00
72558;BME280;60583;50.094;8.748;2023-08-31T06:03:04;99948.16;;;13.40;100.00
72558;BME280;60583;50.094;8.748;2023-08-31T06:05:31;99952.00;;;13.44;100.00
72558;BME280;60583;50.094;8.748;2023-08-31T06:07:58;99947.50;;;13.57;100.00
72558;BME280;60583;50.094;8.748;2023-08-31T06:10:24;99951.94;;;13.63;100.00
72558;BME280;60583;50.094;8.748;2023-08-31T06:12:49;99958.38;;;13.73;100.00
72558;BME280;60583;50.094;8.748;2023-08-31T06:15:18;99954.78;;;13.79;100.00
72558;BME280;60583;50.094;8.748;2023-08-31T06:17:44;99955.38;;;13.81;99.99
72558;BME280;60583;50.094;8.748;2023-08-31T06:20:10;99969.47;;;13.88;100.00
72558;BME280;60583;50.094;8.748;2023-08-31T06:22:35;99955.81;;;13.67;100.00
72558;BME280;60583;50.094;8.748;2023-08-31T06:25:01;99969.81;;;13.80;100.00
72558;BME280;60583;50.094;8.748;2023-08-31T06:27:28;99978.44;;;13.82;99.69
72558;BME280;60583;50.094;8.748;2023-08-31T06:29:53;99990.91;;;13.77;99.04
72558;BME280;60583;50.094;8.748;2023-08-31T06:32:18;99987.97;;;13.78;98.50
72558;BME280;60583;50.094;8.748;2023-08-31T06:34:45;99988.81;;;13.90;98.50
72558;BME280;60583;50.094;8.748;2023-08-31T06:37:10;99974.97;;;13.93;97.00
72558;BME280;60583;50.094;8.748;2023-08-31T06:39:36;99975.09;;;14.10;96.69
72558;BME280;60583;50.094;8.748;2023-08-31T06:42:02;99971.84;;;14.08;97.18
72558;BME280;60583;50.094;8.748;2023-08-31T06:44:28;99983.63;;;14.19;95.24
72558;BME280;60583;50.094;8.748;2023-08-31T06:46:55;99970.69;;;14.16;95.10
72558;BME280;60583;50.094;8.748;2023-08-31T06:49:22;99971.91;;;14.31;93.33
72558;BME280;60583;50.094;8.748;2023-08-31T06:51:47;99971.75;;;14.38;93.64
72558;BME280;60583;50.094;8.748;2023-08-31T06:54:12;99977.75;;;14.40;93.08
72558;BME280;60583;50.094;8.748;2023-08-31T06:56:38;99972.13;;;14.41;93.41
72558;BME280;60583;50.094;8.748;2023-08-31T06:59:03;99967.34;;;14.55;92.15
72558;BME280;60583;50.094;8.748;2023-08-31T07:01:29;99958.91;;;14.63;90.52
72558;BME280;60583;50.094;8.748;2023-08-31T07:03:55;99987.72;;;14.91;91.11
72558;BME280;60583;50.094;8.748;2023-08-31T07:06:20;99994.97;;;14.90;88.68
72558;BME280;60583;50.094;8.748;2023-08-31T07:08:46;99995.09;;;14.72;89.57
72558;BME280;60583;50.094;8.748;2023-08-31T07:11:12;99997.91;;;14.77;89.44
72558;BME280;60583;50.094;8.748;2023-08-31T07:13:37;99996.50;;;14.63;89.75
72558;BME280;60583;50.094;8.748;2023-08-31T07:16:03;100002.25;;;14.55;91.42
72558;BME280;60583;50.094;8.748;2023-08-31T07:18:29;100006.41;;;14.51;90.93
72558;BME280;60583;50.094;8.748;2023-08-31T07:20:54;100012.25;;;14.59;91.70
72558;BME280;60583;50.094;8.748;2023-08-31T07:23:20;100003.72;;;14.74;89.52
72558;BME280;60583;50.094;8.748;2023-08-31T07:25:45;100013.16;;;14.88;89.86
72558;BME280;60583;50.094;8.748;2023-08-31T07:28:11;100011.72;;;15.09;87.67
72558;BME280;60583;50.094;8.748;2023-08-31T07:30:36;100030.59;;;15.37;87.11
72558;BME280;60583;50.094;8.748;2023-08-31T07:33:02;100033.53;;;15.24;86.17
72558;BME280;60583;50.094;8.748;2023-08-31T07:35:29;100032.22;;;15.38;87.22
72558;BME280;60583;50.094;8.748;2023-08-31T07:37:55;100029.28;;;15.40;86.63
72558;BME280;60583;50.094;8.748;2023-08-31T07:40:20;100027.31;;;15.75;85.38
72558;BME280;60583;50.094;8.748;2023-08-31T07:42:46;100029.66;;;15.71;84.50
72558;BME280;60583;50.094;8.748;2023-08-31T07:45:11;100032.06;;;15.84;84.69
72558;BME280;60583;50.094;8.748;2023-08-31T07:47:36;100026.56;;;16.24;83.79
72558;BME280;60583;50.094;8.748;2023-08-31T07:50:02;100041.72;;;16.47;82.46
72558;BME280;60583;50.094;8.748;2023-08-31T07:52:27;100025.59;;;16.30;81.83
72558;BME280;60583;50.094;8.748;2023-08-31T07:54:53;100031.50;;;15.99;81.34
72558;BME280;60583;50.094;8.748;2023-08-31T07:57:19;100041.81;;;16.35;79.95
72558;BME280;60583;50.094;8.748;2023-08-31T07:59:45;100037.81;;;16.21;80.30
72558;BME280;60583;50.094;8.748;2023-08-31T08:02:10;100042.56;;;16.31;80.33
72558;BME280;60583;50.094;8.748;2023-08-31T08:04:35;100042.56;;;16.31;81.11
72558;BME280;60583;50.094;8.748;2023-08-31T08:07:01;100041.81;;;16.35;80.72
72558;BME280;60583;50.094;8.748;2023-08-31T08:09:27;100055.75;;;16.49;79.39
72558;BME280;60583;50.094;8.748;2023-08-31T08:11:52;100035.50;;;16.46;79.65
72558;BME280;60583;50.094;8.748;2023-08-31T08:14:18;100050.72;;;16.52;78.71
72558;BME280;60583;50.094;8.748;2023-08-31T08:16:43;100060.28;;;16.60;78.46
72558;BME280;60583;50.094;8.748;2023-08-31T08:19:08;100046.22;;;16.25;80.02
72558;BME280;60583;50.094;8.748;2023-08-31T08:21:34;100061.53;;;16.24;80.06
72558;BME280;60583;50.094;8.748;2023-08-31T08:24:00;100069.91;;;16.56;79.35
72558;BME280;60583;50.094;8.748;2023-08-31T08:26:25;100063.94;;;16.71;78.79
72558;BME280;60583;50.094;8.748;2023-08-31T08:28:51;100054.88;;;17.15;78.16
72558;BME280;60583;50.094;8.748;2023-08-31T08:31:16;100058.44;;;17.20;77.34
72558;BME280;60583;50.094;8.748;2023-08-31T08:33:41;100073.06;;;17.46;75.62
72558;BME280;60583;50.094;8.748;2023-08-31T08:36:07;100075.47;;;17.64;74.68
72558;BME280;60583;50.094;8.748;2023-08-31T08:38:32;100051.50;;;17.46;74.53
72558;BME280;60583;50.094;8.748;2023-08-31T08:41:04;100081.59;;;17.60;74.27
72558;BME280;60583;50.094;8.748;2023-08-31T08:43:29;100071.69;;;17.65;73.74
72558;BME280;60583;50.094;8.748;2023-08-31T08:45:57;100087.13;;;17.48;73.73
72558;BME280;60583;50.094;8.748;2023-08-31T08:48:25;100087.53;;;17.57;74.09
72558;BME280;60583;50.094;8.748;2023-08-31T08:50:51;100090.25;;;17.83;73.21
72558;BME280;60583;50.094;8.748;2023-08-31T08:53:18;100085.63;;;18.06;71.88
72558;BME280;60583;50.094;8.748;2023-08-31T08:55:44;100093.31;;;17.92;72.56
72558;BME280;60583;50.094;8.748;2023-08-31T08:58:09;100100.16;;;18.00;72.38
72558;BME280;60583;50.094;8.748;2023-08-31T09:00:35;100088.06;;;17.80;72.99
72558;BME280;60583;50.094;8.748;2023-08-31T09:03:02;100096.22;;;17.85;72.25
72558;BME280;60583;50.094;8.748;2023-08-31T09:05:32;100096.03;;;17.70;72.24
72558;BME280;60583;50.094;8.748;2023-08-31T09:08:08;100102.56;;;17.74;72.71
72558;BME280;60583;50.094;8.748;2023-08-31T09:10:42;100105.72;;;17.66;72.08
72558;BME280;60583;50.094;8.748;2023-08-31T09:13:13;100102.69;;;17.84;72.91
72558;BME280;60583;50.094;8.748;2023-08-31T09:15:40;100107.56;;;17.88;73.09
72558;BME280;60583;50.094;8.748;2023-08-31T09:18:07;100091.69;;;17.48;73.33
72558;BME280;60583;50.094;8.748;2023-08-31T09:20:47;100106.59;;;17.34;72.86
72558;BME280;60583;50.094;8.748;2023-08-31T09:23:13;100100.84;;;17.47;73.39
72558;BME280;60583;50.094;8.748;2023-08-31T09:25:50;100097.69;;;17.33;73.66
72558;BME280;60583;50.094;8.748;2023-08-31T09:28:18;100101.16;;;17.50;74.43
72558;BME280;60583;50.094;8.748;2023-08-31T09:30:46;100103.84;;;17.50;74.31
72558;BME280;60583;50.094;8.748;2023-08-31T09:33:17;100099.34;;;16.96;74.52
72558;BME280;60583;50.094;8.748;2023-08-31T09:35:49;100110.97;;;17.18;74.90
72558;BME280;60583;50.094;8.748;2023-08-31T09:38:16;100097.72;;;17.55;73.97
72558;BME280;60583;50.094;8.748;2023-08-31T09:40:41;100097.63;;;18.15;71.35
72558;BME280;60583;50.094;8.748;2023-08-31T09:43:07;100092.00;;;18.48;68.40
72558;BME280;60583;50.094;8.748;2023-08-31T09:45:34;100100.19;;;18.58;67.17
72558;BME280;60583;50.094;8.748;2023-08-31T09:48:02;100081.25;;;18.58;67.66
72558;BME280;60583;50.094;8.748;2023-08-31T09:50:32;100079.50;;;18.42;66.60
72558;BME280;60583;50.094;8.748;2023-08-31T09:53:02;100089.75;;;18.40;67.46
72558;BME280;60583;50.094;8.748;2023-08-31T09:55:30;100082.63;;;18.29;67.03
72558;BME280;60583;50.094;8.748;2023-08-31T09:57:57;100088.75;;;18.19;66.94
72558;BME280;60583;50.094;8.748;2023-08-31T10:00:25;100066.50;;;18.07;68.02
72558;BME280;60583;50.094;8.748;2023-08-31T10:02:53;100085.19;;;18.14;68.91
72558;BME280;60583;50.094;8.748;2023-08-31T10:05:20;100094.75;;;18.26;68.66
72558;BME280;60583;50.094;8.748;2023-08-31T10:07:45;100095.69;;;18.15;66.43
72558;BME280;60583;50.094;8.748;2023-08-31T10:10:11;100098.47;;;17.94;66.89
72558;BME280;60583;50.094;8.748;2023-08-31T10:12:37;100099.63;;;18.03;67.48
72558;BME280;60583;50.094;8.748;2023-08-31T10:15:04;100081.28;;;17.78;67.89
72558;BME280;60583;50.094;8.748;2023-08-31T10:17:30;100097.41;;;17.95;67.17
72558;BME280;60583;50.094;8.748;2023-08-31T10:19:56;100094.31;;;18.13;67.18
72558;BME280;60583;50.094;8.748;2023-08-31T10:22:22;100098.47;;;18.47;66.11
72558;BME280;60583;50.094;8.748;2023-08-31T10:25:03;100101.25;;;19.36;63.53
72558;BME280;60583;50.094;8.748;2023-08-31T10:27:36;100090.94;;;20.00;61.01
72558;BME280;60583;50.094;8.748;2023-08-31T10:30:24;100097.88;;;19.60;61.86
72558;BME280;60583;50.094;8.748;2023-08-31T10:36:01;100080.34;;;19.21;63.40
72558;BME280;60583;50.094;8.748;2023-08-31T10:43:53;100095.94;;;18.67;63.71
72558;BME280;60583;50.094;8.748;2023-08-31T10:51:40;100091.25;;;22.37;53.02
72558;BME280;60583;50.094;8.748;2023-08-31T10:54:19;100087.91;;;24.21;47.67
72558;BME280;60583;50.094;8.748;2023-08-31T10:59:25;100084.09;;;23.61;47.39
72558;BME280;60583;50.094;8.748;2023-08-31T11:04:29;100069.56;;;21.88;51.54
72558;BME280;60583;50.094;8.748;2023-08-31T11:07:15;100079.28;;;21.35;54.12
72558;BME280;60583;50.094;8.748;2023-08-31T11:09:41;100069.13;;;20.37;55.15
72558;BME280;60583;50.094;8.748;2023-08-31T11:12:07;100075.59;;;20.25;56.73
72558;BME280;60583;50.094;8.748;2023-08-31T11:14:32;100071.19;;;20.04;57.37
72558;BME280;60583;50.094;8.748;2023-08-31T11:16:59;100082.91;;;20.70;56.71
72558;BME280;60583;50.094;8.748;2023-08-31T11:19:25;100072.06;;;22.57;52.03
72558;BME280;60583;50.094;8.748;2023-08-31T11:21:51;100059.16;;;23.91;48.33
72558;BME280;60583;50.094;8.748;2023-08-31T11:24:17;100060.84;;;23.45;49.43
72558;BME280;60583;50.094;8.748;2023-08-31T11:26:42;100057.66;;;22.57;51.18
72558;BME280;60583;50.094;8.748;2023-08-31T11:29:08;100063.81;;;21.36;50.87
72558;BME280;60583;50.094;8.748;2023-08-31T11:31:40;100049.31;;;20.76;52.37
72558;BME280;60583;50.094;8.748;2023-08-31T11:34:06;100064.50;;;20.47;53.83
72558;BME280;60583;50.094;8.748;2023-08-31T11:36:35;100072.03;;;20.20;55.00
72558;BME280;60583;50.094;8.748;2023-08-31T11:39:01;100068.22;;;20.01;55.63
72558;BME280;60583;50.094;8.748;2023-08-31T11:41:32;100074.94;;;19.78;56.44
72558;BME280;60583;50.094;8.748;2023-08-31T11:43:58;100076.78;;;19.62;56.76
72558;BME280;60583;50.094;8.748;2023-08-31T11:46:24;100066.44;;;19.49;57.70
72558;BME280;60583;50.094;8.748;2023-08-31T11:48:50;100061.56;;;19.46;58.56
72558;BME280;60583;50.094;8.748;2023-08-31T11:51:16;100052.53;;;19.26;58.68
72558;BME280;60583;50.094;8.748;2023-08-31T11:53:42;100060.13;;;19.34;58.97
72558;BME280;60583;50.094;8.748;2023-08-31T11:56:07;100071.75;;;19.34;59.54
72558;BME280;60583;50.094;8.748;2023-08-31T11:58:32;100059.56;;;19.32;59.58
72558;BME280;60583;50.094;8.748;2023-08-31T12:00:59;100065.50;;;19.29;59.93
72558;BME280;60583;50.094;8.748;2023-08-31T12:03:26;100058.19;;;19.24;59.62
72558;BME280;60583;50.094;8.748;2023-08-31T12:05:52;100056.41;;;19.40;59.15
72558;BME280;60583;50.094;8.748;2023-08-31T12:08:27;100061.22;;;19.33;59.22
72558;BME280;60583;50.094;8.748;2023-08-31T12:10:53;100059.81;;;19.20;59.63
72558;BME280;60583;50.094;8.748;2023-08-31T12:13:19;100049.19;;;19.08;59.86
72558;BME280;60583;50.094;8.748;2023-08-31T12:15:45;100051.09;;;19.08;59.90
72558;BME280;60583;50.094;8.748;2023-08-31T12:18:12;100058.31;;;18.97;60.10
72558;BME280;60583;50.094;8.748;2023-08-31T12:20:45;100066.66;;;18.96;61.11
72558;BME280;60583;50.094;8.748;2023-08-31T12:23:11;100057.13;;;18.83;62.46
72558;BME280;60583;50.094;8.748;2023-08-31T12:25:36;100068.97;;;18.72;63.40
72558;BME280;60583;50.094;8.748;2023-08-31T12:28:02;100067.25;;;18.61;63.82
72558;BME280;60583;50.094;8.748;2023-08-31T12:30:28;100060.88;;;19.76;60.39
72558;BME280;60583;50.094;8.748;2023-08-31T12:32:54;100049.81;;;19.26;61.39
72558;BME280;60583;50.094;8.748;2023-08-31T12:35:19;100054.00;;;19.43;61.98
72558;BME280;60583;50.094;8.748;2023-08-31T12:37:45;100044.63;;;19.19;62.24
72558;BME280;60583;50.094;8.748;2023-08-31T12:40:10;100047.56;;;19.07;63.80
72558;BME280;60583;50.094;8.748;2023-08-31T12:42:36;100046.44;;;19.03;63.97
72558;BME280;60583;50.094;8.748;2023-08-31T12:45:02;100051.59;;;19.00;62.65
72558;BME280;60583;50.094;8.748;2023-08-31T12:47:31;100021.16;;;18.73;60.80
72558;BME280;60583;50.094;8.748;2023-08-31T12:49:56;100044.13;;;18.75;59.06
72558;BME280;60583;50.094;8.748;2023-08-31T12:52:22;100048.94;;;18.68;61.50
72558;BME280;60583;50.094;8.748;2023-08-31T12:54:47;100030.66;;;18.80;60.85
72558;BME280;60583;50.094;8.748;2023-08-31T12:57:12;100043.22;;;19.06;61.08
72558;BME280;60583;50.094;8.748;2023-08-31T12:59:38;100023.78;;;19.09;61.01
72558;BME280;60583;50.094;8.748;2023-08-31T13:02:03;100037.75;;;19.38;60.23
72558;BME280;60583;50.094;8.748;2023-08-31T13:04:32;100038.09;;;19.62;60.23
72558;BME280;60583;50.094;8.748;2023-08-31T13:06:57;100043.53;;;19.72;59.81
72558;BME280;60583;50.094;8.748;2023-08-31T13:09:23;100022.41;;;19.74;58.95
72558;BME280;60583;50.094;8.748;2023-08-31T13:11:49;100026.22;;;19.78;58.17
72558;BME280;60583;50.094;8.748;2023-08-31T13:14:14;100027.84;;;19.79;58.29
72558;BME280;60583;50.094;8.748;2023-08-31T13:16:40;100022.41;;;19.69;59.09
72558;BME280;60583;50.094;8.748;2023-08-31T13:19:05;100027.84;;;19.79;54.51